createdAt,value
2022-11-24T00:01:45.441Z,100.00
2022-11-24T00:06:47.322Z,100.00
2022-11-24T00:11:50.314Z,100.00
2022-11-24T00:16:52.201Z,100.00
2022-11-24T00:21:54.025Z,100.00
2022-11-24T00:26:55.826Z,100.00
2022-11-24T00:31:57.986Z,100.00
2022-11-24T00:36:59.805Z,100.00
2022-11-24T00:42:02.154Z,100.00
2022-11-24T00:47:04.076Z,100.00
2022-11-24T00:52:06.000Z,100.00
2022-11-24T00:57:07.867Z,100.00
2022-11-24T01:02:09.818Z,100.00
2022-11-24T01:07:11.785Z,100.00
2022-11-24T01:12:13.619Z,100.00
2022-11-24T01:17:15.401Z,100.00
2022-11-24T01:22:17.208Z,100.00
2022-11-24T01:27:18.973Z,100.00
2022-11-24T01:32:20.802Z,100.00
2022-11-24T01:37:22.608Z,100.00
2022-11-24T01:42:24.663Z,100.00
2022-11-24T01:47:40.872Z,100.00
2022-11-24T01:53:00.978Z,100.00
2022-11-24T01:58:11.577Z,100.00
2022-11-24T02:03:17.876Z,100.00
2022-11-24T02:08:43.920Z,100.00
2022-11-24T02:13:48.790Z,100.00
2022-11-24T02:18:51.281Z,100.00
2022-11-24T02:24:22.083Z,100.00
2022-11-24T02:29:24.075Z,100.00
2022-11-24T02:34:26.860Z,100.00
2022-11-24T02:39:28.734Z,100.00
2022-11-24T02:44:36.530Z,100.00
2022-11-24T02:49:38.774Z,100.00
2022-11-24T02:54:53.673Z,100.00
2022-11-24T02:59:55.627Z,100.00
2022-11-24T03:04:58.605Z,100.00
2022-11-24T03:10:00.747Z,100.00
2022-11-24T03:15:06.902Z,100.00
2022-11-24T03:20:09.789Z,99.80
2022-11-24T03:25:13.721Z,99.37
2022-11-24T03:30:16.932Z,99.14
2022-11-24T03:35:18.808Z,98.69
2022-11-24T03:40:20.654Z,97.68
2022-11-24T03:45:44.883Z,97.07
2022-11-24T03:50:52.305Z,96.34
2022-11-24T03:55:54.949Z,96.92
2022-11-24T04:00:57.964Z,97.11
2022-11-24T04:05:59.842Z,97.86
2022-11-24T04:11:03.256Z,98.31
2022-11-24T04:16:08.996Z,99.00
2022-11-24T04:21:10.733Z,99.53
2022-11-24T04:26:12.911Z,100.00
2022-11-24T04:31:14.763Z,100.00
2022-11-24T04:36:16.541Z,100.00
2022-11-24T04:41:18.321Z,100.00
2022-11-24T04:46:20.124Z,100.00
2022-11-24T04:51:21.870Z,100.00
2022-11-24T04:56:23.645Z,100.00
2022-11-24T05:01:25.372Z,100.00
2022-11-24T05:06:27.115Z,99.96
2022-11-24T05:11:28.850Z,100.00
2022-11-24T05:16:30.586Z,100.00
2022-11-24T05:21:32.262Z,100.00
2022-11-24T05:26:35.530Z,100.00
2022-11-24T05:31:37.362Z,100.00
2022-11-24T05:36:54.447Z,100.00
2022-11-24T05:41:56.179Z,100.00
2022-11-24T05:46:57.974Z,100.00
2022-11-24T05:52:02.825Z,100.00
2022-11-24T05:57:05.069Z,100.00
2022-11-24T06:02:10.277Z,100.00
2022-11-24T06:07:12.666Z,100.00
2022-11-24T06:12:14.563Z,100.00
2022-11-24T06:17:16.228Z,100.00
2022-11-24T06:22:19.404Z,100.00
2022-11-24T06:27:28.180Z,100.00
2022-11-24T06:32:29.801Z,100.00
2022-11-24T06:37:36.507Z,100.00
2022-11-24T06:42:38.395Z,100.00
2022-11-24T06:47:46.158Z,100.00
2022-11-24T06:52:47.872Z,100.00
2022-11-24T06:57:49.548Z,100.00
2022-11-24T07:02:51.349Z,100.00
2022-11-24T07:07:53.833Z,100.00
2022-11-24T07:12:55.566Z,100.00
2022-11-24T07:17:57.575Z,100.00
2022-11-24T07:22:59.645Z,100.00
2022-11-24T07:28:01.830Z,100.00
2022-11-24T07:33:03.847Z,100.00
2022-11-24T07:38:05.512Z,100.00
2022-11-24T07:43:07.109Z,100.00
2022-11-24T07:48:10.266Z,100.00
2022-11-24T07:53:11.916Z,100.00
2022-11-24T07:58:13.511Z,100.00
2022-11-24T08:03:15.354Z,100.00
2022-11-24T08:08:17.057Z,100.00
2022-11-24T08:13:19.911Z,100.00
2022-11-24T08:18:24.391Z,100.00
2022-11-24T08:23:26.335Z,100.00
2022-11-24T08:28:27.934Z,100.00
2022-11-24T08:33:29.732Z,100.00
2022-11-24T10:55:17.590Z,100.00
2022-11-24T11:00:19.256Z,100.00
2022-11-24T11:05:26.313Z,100.00
2022-11-24T11:10:28.276Z,100.00
2022-11-24T11:15:31.532Z,100.00
2022-11-24T11:20:35.157Z,100.00
2022-11-24T11:25:41.151Z,100.00
2022-11-24T11:31:21.003Z,100.00
2022-11-24T11:36:24.558Z,100.00
2022-11-24T11:41:33.863Z,100.00
2022-11-24T11:46:36.047Z,100.00
2022-11-24T11:52:25.973Z,100.00
2022-11-24T11:57:42.931Z,99.38
2022-11-24T12:02:54.487Z,100.00
2022-11-24T12:08:21.090Z,99.50
2022-11-24T12:13:57.397Z,98.58
2022-11-24T12:19:24.519Z,98.14
2022-11-24T12:24:44.380Z,98.41
2022-11-24T12:29:48.774Z,96.80
2022-11-24T12:35:06.156Z,97.28
2022-11-24T12:40:23.763Z,96.86
2022-11-24T12:45:39.443Z,97.02
2022-11-24T12:50:43.986Z,95.92
2022-11-24T12:55:46.774Z,96.03
2022-11-24T13:01:16.170Z,96.24
2022-11-24T13:06:44.369Z,95.39
2022-11-24T13:11:51.628Z,95.81
2022-11-24T13:17:21.805Z,95.25
2022-11-24T13:22:24.370Z,94.54
2022-11-24T13:27:28.228Z,94.08
2022-11-24T13:32:46.284Z,94.09
2022-11-24T13:37:51.809Z,93.57
2022-11-24T13:42:57.670Z,94.35
2022-11-24T13:47:59.935Z,94.77
2022-11-24T13:53:12.985Z,95.43
2022-11-24T13:58:14.615Z,95.58
2022-11-24T14:03:24.027Z,95.56
2022-11-24T14:08:29.065Z,95.03
2022-11-24T14:13:34.473Z,95.41
2022-11-24T14:18:39.491Z,95.69
2022-11-24T14:23:45.194Z,95.85
2022-11-24T14:28:48.992Z,96.33
2022-11-24T14:34:07.041Z,97.26
2022-11-24T14:39:14.567Z,97.61
2022-11-24T14:44:28.995Z,98.30
2022-11-24T14:49:33.114Z,98.23
2022-11-24T14:54:37.695Z,98.84
2022-11-24T14:59:41.710Z,99.01
2022-11-24T15:05:04.372Z,98.74
2022-11-24T15:10:19.309Z,98.84
2022-11-24T15:15:29.383Z,98.57
2022-11-24T15:20:44.520Z,99.02
2022-11-24T15:25:47.574Z,98.33
2022-11-24T15:30:49.154Z,98.91
2022-11-24T15:35:50.991Z,99.75
2022-11-24T15:40:55.405Z,100.00
2022-11-24T15:46:00.510Z,100.00
2022-11-24T15:51:04.636Z,100.00
2022-11-24T15:56:10.891Z,99.80
2022-11-24T16:01:12.702Z,99.70
2022-11-24T16:06:24.124Z,100.00
2022-11-24T16:11:27.283Z,100.00
2022-11-24T16:16:28.983Z,100.00
2022-11-24T16:21:30.579Z,100.00
2022-11-24T16:26:32.739Z,100.00
2022-11-24T16:31:35.078Z,100.00
2022-11-24T16:36:36.760Z,100.00
2022-11-24T16:41:38.494Z,100.00
2022-11-24T16:46:40.240Z,99.92
2022-11-24T16:51:42.557Z,100.00
2022-11-24T16:56:44.159Z,100.00
2022-11-24T17:01:51.054Z,100.00
2022-11-24T17:06:53.715Z,99.98
2022-11-24T17:11:55.482Z,100.00
2022-11-24T17:16:57.187Z,100.00
2022-11-24T17:22:02.368Z,100.00
2022-11-24T17:27:04.171Z,99.96
2022-11-24T17:32:10.665Z,99.96
2022-11-24T17:37:19.964Z,100.00
2022-11-24T17:42:23.937Z,99.59
2022-11-24T17:47:27.475Z,99.50
2022-11-24T17:52:30.170Z,99.63
2022-11-24T17:57:32.410Z,100.00
2022-11-24T18:02:34.170Z,100.00
2022-11-24T18:07:36.703Z,100.00
2022-11-24T18:12:38.448Z,100.00
2022-11-24T18:17:41.656Z,100.00
2022-11-24T18:23:04.488Z,100.00
2022-11-24T18:28:05.139Z,100.00
2022-11-24T18:33:07.073Z,100.00
2022-11-24T18:38:09.298Z,100.00
2022-11-24T18:43:11.150Z,100.00
2022-11-24T18:48:14.642Z,100.00
2022-11-24T18:53:16.279Z,100.00
2022-11-24T18:58:17.925Z,100.00
2022-11-24T19:03:19.637Z,100.00
2022-11-24T19:08:22.673Z,100.00
2022-11-24T19:13:24.711Z,100.00
2022-11-24T19:18:33.190Z,100.00
2022-11-24T19:23:35.043Z,100.00
2022-11-24T19:29:29.907Z,99.57
2022-11-24T19:34:31.458Z,98.98
2022-11-24T19:39:36.994Z,98.80
2022-11-24T19:44:38.974Z,98.76
2022-11-24T19:49:40.610Z,98.49
2022-11-24T19:54:42.330Z,98.34
2022-11-24T21:28:05.114Z,96.01
2022-11-24T21:33:07.112Z,96.23
2022-11-24T21:38:09.057Z,96.46
2022-11-24T21:43:10.969Z,97.18
2022-11-24T21:48:12.720Z,97.38
2022-11-24T21:53:14.321Z,97.46
2022-11-24T21:58:16.016Z,98.07
2022-11-24T22:03:23.556Z,98.54
2022-11-24T22:08:27.224Z,98.58
2022-11-24T22:13:28.926Z,99.06
2022-11-24T22:18:36.343Z,99.07
2022-11-24T22:23:37.960Z,99.26
2022-11-24T22:28:39.801Z,99.86
2022-11-24T22:33:41.888Z,100.00
2022-11-24T22:38:43.591Z,99.92
2022-11-24T22:43:47.455Z,100.00
2022-11-24T22:48:52.958Z,100.00
2022-11-24T22:53:58.304Z,100.00
2022-11-24T22:59:13.646Z,100.00
2022-11-24T23:04:16.061Z,100.00
2022-11-24T23:09:17.765Z,100.00
2022-11-24T23:14:19.370Z,100.00
2022-11-24T23:19:20.957Z,100.00
2022-11-24T23:24:22.577Z,100.00
2022-11-24T23:29:24.253Z,100.00
2022-11-24T23:34:25.924Z,100.00
2022-11-24T23:39:27.594Z,100.00
2022-11-24T23:44:29.234Z,100.00
2022-11-24T23:49:30.954Z,100.00
2022-11-24T23:54:32.794Z,100.00
2022-11-24T23:59:34.710Z,100.00
